sensor_id;sensor_type;location;lat;lon;timestamp;P1;P2;P0
69123;PMS5003;56232;53.384;-2.732;2022-08-19T00:01:44;4;3;
69123;PMS5003;56232;53.384;-2.732;2022-08-19T00:04:09;4;3;
69123;PMS5003;56232;53.384;-2.732;2022-08-19T00:06:34;5;4;
69123;PMS5003;56232;53.384;-2.732;2022-08-19T00:08:59;3;3;
69123;PMS5003;56232;53.384;-2.732;2022-08-19T00:11:25;4;3;
69123;PMS5003;56232;53.384;-2.732;2022-08-19T00:13:51;3;2;
69123;PMS5003;56232;53.384;-2.732;2022-08-19T00:16:17;2;2;
69123;PMS5003;56232;53.384;-2.732;2022-08-19T00:18:42;3;3;
69123;PMS5003;56232;53.384;-2.732;2022-08-19T00:21:07;5;5;
69123;PMS5003;56232;53.384;-2.732;2022-08-19T00:23:33;3;3;
69123;PMS5003;56232;53.384;-2.732;2022-08-19T00:25:58;8;6;
69123;PMS5003;56232;53.384;-2.732;2022-08-19T00:28:24;3;3;
69123;PMS5003;56232;53.384;-2.732;2022-08-19T00:30:49;5;3;
69123;PMS5003;56232;53.384;-2.732;2022-08-19T00:33:15;3;3;
69123;PMS5003;56232;53.384;-2.732;2022-08-19T00:35:40;4;3;
69123;PMS5003;56232;53.384;-2.732;2022-08-19T00:38:06;4;3;
69123;PMS5003;56232;53.384;-2.732;2022-08-19T00:40:31;9;9;
69123;PMS5003;56232;53.384;-2.732;2022-08-19T00:42:57;4;4;
69123;PMS5003;56232;53.384;-2.732;2022-08-19T00:45:24;4;4;
69123;PMS5003;56232;53.384;-2.732;2022-08-19T00:47:48;2;1;
69123;PMS5003;56232;53.384;-2.732;2022-08-19T00:50:14;5;4;
69123;PMS5003;56232;53.384;-2.732;2022-08-19T00:52:41;5;5;
69123;PMS5003;56232;53.384;-2.732;2022-08-19T00:55:06;4;3;
69123;PMS5003;56232;53.384;-2.732;2022-08-19T00:57:32;5;5;
69123;PMS5003;56232;53.384;-2.732;2022-08-19T00:59:56;3;3;
69123;PMS5003;56232;53.384;-2.732;2022-08-19T01:02:21;4;3;
69123;PMS5003;56232;53.384;-2.732;2022-08-19T01:04:47;3;3;
69123;PMS5003;56232;53.384;-2.732;2022-08-19T01:07:13;4;2;
69123;PMS5003;56232;53.384;-2.732;2022-08-19T01:09:38;4;3;
69123;PMS5003;56232;53.384;-2.732;2022-08-19T01:12:04;4;4;
69123;PMS5003;56232;53.384;-2.732;2022-08-19T01:14:29;5;5;
69123;PMS5003;56232;53.384;-2.732;2022-08-19T01:16:55;6;4;
69123;PMS5003;56232;53.384;-2.732;2022-08-19T01:19:22;3;2;
69123;PMS5003;56232;53.384;-2.732;2022-08-19T01:21:47;5;4;
69123;PMS5003;56232;53.384;-2.732;2022-08-19T01:24:12;6;5;
69123;PMS5003;56232;53.384;-2.732;2022-08-19T01:26:39;3;3;
69123;PMS5003;56232;53.384;-2.732;2022-08-19T01:29:03;4;3;
69123;PMS5003;56232;53.384;-2.732;2022-08-19T01:31:29;4;3;
69123;PMS5003;56232;53.384;-2.732;2022-08-19T01:33:56;4;3;
69123;PMS5003;56232;53.384;-2.732;2022-08-19T01:36:22;4;4;
69123;PMS5003;56232;53.384;-2.732;2022-08-19T01:38:45;6;5;
69123;PMS5003;56232;53.384;-2.732;2022-08-19T01:41:11;7;6;
69123;PMS5003;56232;53.384;-2.732;2022-08-19T01:43:37;3;3;
69123;PMS5003;56232;53.384;-2.732;2022-08-19T01:46:02;4;4;
69123;PMS5003;56232;53.384;-2.732;2022-08-19T01:48:27;4;3;
69123;PMS5003;56232;53.384;-2.732;2022-08-19T01:50:53;6;4;
69123;PMS5003;56232;53.384;-2.732;2022-08-19T01:53:18;4;3;
69123;PMS5003;56232;53.384;-2.732;2022-08-19T01:55:44;5;5;
69123;PMS5003;56232;53.384;-2.732;2022-08-19T01:58:10;5;4;
69123;PMS5003;56232;53.384;-2.732;2022-08-19T02:00:35;7;5;
69123;PMS5003;56232;53.384;-2.732;2022-08-19T02:03:01;11;9;
69123;PMS5003;56232;53.384;-2.732;2022-08-19T02:05:27;6;4;
69123;PMS5003;56232;53.384;-2.732;2022-08-19T02:07:53;3;3;
69123;PMS5003;56232;53.384;-2.732;2022-08-19T02:10:19;6;5;
69123;PMS5003;56232;53.384;-2.732;2022-08-19T02:12:44;4;4;
69123;PMS5003;56232;53.384;-2.732;2022-08-19T02:15:09;4;4;
69123;PMS5003;56232;53.384;-2.732;2022-08-19T02:17:35;5;4;
69123;PMS5003;56232;53.384;-2.732;2022-08-19T02:20:00;3;2;
69123;PMS5003;56232;53.384;-2.732;2022-08-19T02:22:26;5;4;
69123;PMS5003;56232;53.384;-2.732;2022-08-19T02:24:52;4;3;
69123;PMS5003;56232;53.384;-2.732;2022-08-19T02:27:17;6;5;
69123;PMS5003;56232;53.384;-2.732;2022-08-19T02:29:43;7;6;
69123;PMS5003;56232;53.384;-2.732;2022-08-19T02:32:08;7;5;
69123;PMS5003;56232;53.384;-2.732;2022-08-19T02:34:34;4;3;
69123;PMS5003;56232;53.384;-2.732;2022-08-19T02:36:59;5;3;
69123;PMS5003;56232;53.384;-2.732;2022-08-19T02:39:25;4;3;
69123;PMS5003;56232;53.384;-2.732;2022-08-19T02:41:51;3;2;
69123;PMS5003;56232;53.384;-2.732;2022-08-19T02:44:16;6;4;
69123;PMS5003;56232;53.384;-2.732;2022-08-19T02:46:42;6;5;
69123;PMS5003;56232;53.384;-2.732;2022-08-19T02:49:08;4;3;
69123;PMS5003;56232;53.384;-2.732;2022-08-19T02:51:35;4;3;
69123;PMS5003;56232;53.384;-2.732;2022-08-19T02:53:59;4;3;
69123;PMS5003;56232;53.384;-2.732;2022-08-19T02:56:25;4;3;
69123;PMS5003;56232;53.384;-2.732;2022-08-19T02:58:50;7;5;
69123;PMS5003;56232;53.384;-2.732;2022-08-19T03:01:19;7;5;
69123;PMS5003;56232;53.384;-2.732;2022-08-19T03:03:41;5;2;
69123;PMS5003;56232;53.384;-2.732;2022-08-19T03:06:08;5;5;
69123;PMS5003;56232;53.384;-2.732;2022-08-19T03:08:33;5;5;
69123;PMS5003;56232;53.384;-2.732;2022-08-19T03:10:58;3;3;
69123;PMS5003;56232;53.384;-2.732;2022-08-19T03:13:24;3;2;
69123;PMS5003;56232;53.384;-2.732;2022-08-19T03:15:50;3;3;
69123;PMS5003;56232;53.384;-2.732;2022-08-19T03:18:15;7;5;
69123;PMS5003;56232;53.384;-2.732;2022-08-19T03:20:42;6;5;
69123;PMS5003;56232;53.384;-2.732;2022-08-19T03:23:07;6;6;
69123;PMS5003;56232;53.384;-2.732;2022-08-19T03:25:36;4;4;
69123;PMS5003;56232;53.384;-2.732;2022-08-19T03:27:58;6;4;
69123;PMS5003;56232;53.384;-2.732;2022-08-19T03:30:24;4;4;
69123;PMS5003;56232;53.384;-2.732;2022-08-19T03:32:49;6;5;
69123;PMS5003;56232;53.384;-2.732;2022-08-19T03:35:15;5;4;
69123;PMS5003;56232;53.384;-2.732;2022-08-19T03:37:40;4;4;
69123;PMS5003;56232;53.384;-2.732;2022-08-19T03:40:07;4;4;
69123;PMS5003;56232;53.384;-2.732;2022-08-19T03:42:32;5;5;
69123;PMS5003;56232;53.384;-2.732;2022-08-19T03:44:57;5;4;
69123;PMS5003;56232;53.384;-2.732;2022-08-19T03:47:23;4;4;
69123;PMS5003;56232;53.384;-2.732;2022-08-19T03:49:49;5;5;
69123;PMS5003;56232;53.384;-2.732;2022-08-19T03:52:14;5;4;
69123;PMS5003;56232;53.384;-2.732;2022-08-19T03:54:40;3;3;
69123;PMS5003;56232;53.384;-2.732;2022-08-19T03:57:05;5;5;
69123;PMS5003;56232;53.384;-2.732;2022-08-19T03:59:32;6;5;
69123;PMS5003;56232;53.384;-2.732;2022-08-19T04:01:57;5;5;
69123;PMS5003;56232;53.384;-2.732;2022-08-19T04:04:22;5;4;
69123;PMS5003;56232;53.384;-2.732;2022-08-19T04:06:48;4;4;
69123;PMS5003;56232;53.384;-2.732;2022-08-19T04:09:14;5;3;
69123;PMS5003;56232;53.384;-2.732;2022-08-19T04:11:40;6;4;
69123;PMS5003;56232;53.384;-2.732;2022-08-19T04:14:05;5;4;
69123;PMS5003;56232;53.384;-2.732;2022-08-19T04:16:30;7;4;
69123;PMS5003;56232;53.384;-2.732;2022-08-19T04:18:56;3;3;
69123;PMS5003;56232;53.384;-2.732;2022-08-19T04:21:23;5;5;
69123;PMS5003;56232;53.384;-2.732;2022-08-19T04:23:48;4;4;
69123;PMS5003;56232;53.384;-2.732;2022-08-19T04:26:14;5;5;
69123;PMS5003;56232;53.384;-2.732;2022-08-19T04:28:39;3;3;
69123;PMS5003;56232;53.384;-2.732;2022-08-19T04:31:04;5;5;
69123;PMS5003;56232;53.384;-2.732;2022-08-19T04:33:30;4;4;
69123;PMS5003;56232;53.384;-2.732;2022-08-19T04:35:56;7;4;
69123;PMS5003;56232;53.384;-2.732;2022-08-19T04:38:22;5;3;
69123;PMS5003;56232;53.384;-2.732;2022-08-19T04:40:48;4;3;
69123;PMS5003;56232;53.384;-2.732;2022-08-19T04:43:13;5;3;
69123;PMS5003;56232;53.384;-2.732;2022-08-19T04:45:39;7;4;
69123;PMS5003;56232;53.384;-2.732;2022-08-19T04:48:04;3;3;
69123;PMS5003;56232;53.384;-2.732;2022-08-19T04:50:29;6;5;
69123;PMS5003;56232;53.384;-2.732;2022-08-19T04:52:55;6;4;
69123;PMS5003;56232;53.384;-2.732;2022-08-19T04:55:20;6;4;
69123;PMS5003;56232;53.384;-2.732;2022-08-19T04:57:46;5;3;
69123;PMS5003;56232;53.384;-2.732;2022-08-19T05:00:12;4;3;
69123;PMS5003;56232;53.384;-2.732;2022-08-19T05:02:37;4;4;
69123;PMS5003;56232;53.384;-2.732;2022-08-19T05:05:03;5;4;
69123;PMS5003;56232;53.384;-2.732;2022-08-19T05:07:28;4;4;
69123;PMS5003;56232;53.384;-2.732;2022-08-19T05:09:54;5;4;
69123;PMS5003;56232;53.384;-2.732;2022-08-19T05:12:19;10;9;
69123;PMS5003;56232;53.384;-2.732;2022-08-19T05:14:45;6;5;
69123;PMS5003;56232;53.384;-2.732;2022-08-19T05:17:11;4;3;
69123;PMS5003;56232;53.384;-2.732;2022-08-19T05:19:36;6;4;
69123;PMS5003;56232;53.384;-2.732;2022-08-19T05:22:02;4;4;
69123;PMS5003;56232;53.384;-2.732;2022-08-19T05:24:27;4;3;
69123;PMS5003;56232;53.384;-2.732;2022-08-19T05:26:53;2;1;
69123;PMS5003;56232;53.384;-2.732;2022-08-19T05:29:19;4;2;
69123;PMS5003;56232;53.384;-2.732;2022-08-19T05:31:44;3;2;
69123;PMS5003;56232;53.384;-2.732;2022-08-19T05:34:09;7;7;
69123;PMS5003;56232;53.384;-2.732;2022-08-19T05:36:35;6;5;
69123;PMS5003;56232;53.384;-2.732;2022-08-19T05:39:00;4;4;
69123;PMS5003;56232;53.384;-2.732;2022-08-19T05:41:25;5;4;
69123;PMS5003;56232;53.384;-2.732;2022-08-19T05:43:51;6;6;
69123;PMS5003;56232;53.384;-2.732;2022-08-19T05:46:17;3;3;
69123;PMS5003;56232;53.384;-2.732;2022-08-19T05:48:42;8;7;
69123;PMS5003;56232;53.384;-2.732;2022-08-19T05:51:08;5;4;
69123;PMS5003;56232;53.384;-2.732;2022-08-19T05:53:34;7;4;
69123;PMS5003;56232;53.384;-2.732;2022-08-19T05:56:03;7;6;
69123;PMS5003;56232;53.384;-2.732;2022-08-19T05:58:25;7;6;
69123;PMS5003;56232;53.384;-2.732;2022-08-19T06:00:51;8;8;
69123;PMS5003;56232;53.384;-2.732;2022-08-19T06:03:16;9;6;
69123;PMS5003;56232;53.384;-2.732;2022-08-19T06:05:42;6;5;
69123;PMS5003;56232;53.384;-2.732;2022-08-19T06:08:07;7;5;
69123;PMS5003;56232;53.384;-2.732;2022-08-19T06:10:33;7;5;
69123;PMS5003;56232;53.384;-2.732;2022-08-19T06:12:58;7;6;
69123;PMS5003;56232;53.384;-2.732;2022-08-19T06:15:24;8;7;
69123;PMS5003;56232;53.384;-2.732;2022-08-19T06:17:49;8;6;
69123;PMS5003;56232;53.384;-2.732;2022-08-19T06:20:15;8;7;
69123;PMS5003;56232;53.384;-2.732;2022-08-19T06:22:42;8;6;
69123;PMS5003;56232;53.384;-2.732;2022-08-19T06:25:06;6;6;
69123;PMS5003;56232;53.384;-2.732;2022-08-19T06:27:32;6;5;
69123;PMS5003;56232;53.384;-2.732;2022-08-19T06:29:57;6;6;
69123;PMS5003;56232;53.384;-2.732;2022-08-19T06:32:23;5;5;
69123;PMS5003;56232;53.384;-2.732;2022-08-19T06:34:48;5;4;
69123;PMS5003;56232;53.384;-2.732;2022-08-19T06:37:14;4;3;
69123;PMS5003;56232;53.384;-2.732;2022-08-19T06:39:40;4;4;
69123;PMS5003;56232;53.384;-2.732;2022-08-19T06:42:06;6;5;
69123;PMS5003;56232;53.384;-2.732;2022-08-19T06:44:31;3;2;
69123;PMS5003;56232;53.384;-2.732;2022-08-19T06:46:56;4;4;
69123;PMS5003;56232;53.384;-2.732;2022-08-19T06:49:22;8;6;
69123;PMS5003;56232;53.384;-2.732;2022-08-19T06:51:47;7;6;
69123;PMS5003;56232;53.384;-2.732;2022-08-19T06:54:13;8;5;
69123;PMS5003;56232;53.384;-2.732;2022-08-19T06:56:38;6;5;
69123;PMS5003;56232;53.384;-2.732;2022-08-19T06:59:05;4;3;
69123;PMS5003;56232;53.384;-2.732;2022-08-19T07:01:29;5;4;
69123;PMS5003;56232;53.384;-2.732;2022-08-19T07:03:55;7;5;
69123;PMS5003;56232;53.384;-2.732;2022-08-19T07:06:20;4;4;
69123;PMS5003;56232;53.384;-2.732;2022-08-19T07:08:46;5;4;
69123;PMS5003;56232;53.384;-2.732;2022-08-19T07:11:13;6;5;
69123;PMS5003;56232;53.384;-2.732;2022-08-19T07:13:37;6;4;
69123;PMS5003;56232;53.384;-2.732;2022-08-19T07:16:03;6;4;
69123;PMS5003;56232;53.384;-2.732;2022-08-19T07:18:28;4;4;
69123;PMS5003;56232;53.384;-2.732;2022-08-19T07:23:19;4;4;
69123;PMS5003;56232;53.384;-2.732;2022-08-19T07:25:44;5;4;
69123;PMS5003;56232;53.384;-2.732;2022-08-19T07:28:10;4;4;
69123;PMS5003;56232;53.384;-2.732;2022-08-19T07:30:36;1;1;
69123;PMS5003;56232;53.384;-2.732;2022-08-19T07:33:01;4;4;
69123;PMS5003;56232;53.384;-2.732;2022-08-19T07:35:26;7;5;
69123;PMS5003;56232;53.384;-2.732;2022-08-19T07:37:52;5;5;
69123;PMS5003;56232;53.384;-2.732;2022-08-19T07:40:17;4;3;
69123;PMS5003;56232;53.384;-2.732;2022-08-19T07:42:43;5;4;
69123;PMS5003;56232;53.384;-2.732;2022-08-19T07:45:09;4;4;
69123;PMS5003;56232;53.384;-2.732;2022-08-19T07:47:34;2;2;
69123;PMS5003;56232;53.384;-2.732;2022-08-19T07:49:59;2;2;
69123;PMS5003;56232;53.384;-2.732;2022-08-19T07:52:25;5;3;
69123;PMS5003;56232;53.384;-2.732;2022-08-19T07:54:50;4;3;
69123;PMS5003;56232;53.384;-2.732;2022-08-19T07:57:16;6;4;
69123;PMS5003;56232;53.384;-2.732;2022-08-19T07:59:42;5;4;
69123;PMS5003;56232;53.384;-2.732;2022-08-19T08:02:07;5;4;
69123;PMS5003;56232;53.384;-2.732;2022-08-19T08:04:33;4;3;
69123;PMS5003;56232;53.384;-2.732;2022-08-19T08:06:58;3;2;
69123;PMS5003;56232;53.384;-2.732;2022-08-19T08:09:25;2;2;
69123;PMS5003;56232;53.384;-2.732;2022-08-19T08:11:50;3;3;
69123;PMS5003;56232;53.384;-2.732;2022-08-19T08:14:15;4;3;
69123;PMS5003;56232;53.384;-2.732;2022-08-19T08:16:40;4;2;
69123;PMS5003;56232;53.384;-2.732;2022-08-19T08:19:06;2;1;
69123;PMS5003;56232;53.384;-2.732;2022-08-19T08:21:31;5;3;
69123;PMS5003;56232;53.384;-2.732;2022-08-19T08:23:57;4;4;
69123;PMS5003;56232;53.384;-2.732;2022-08-19T08:26:22;4;4;
69123;PMS5003;56232;53.384;-2.732;2022-08-19T08:28:48;4;4;
69123;PMS5003;56232;53.384;-2.732;2022-08-19T08:31:14;3;2;
69123;PMS5003;56232;53.384;-2.732;2022-08-19T08:33:39;4;4;
69123;PMS5003;56232;53.384;-2.732;2022-08-19T08:36:04;6;5;
69123;PMS5003;56232;53.384;-2.732;2022-08-19T08:38:30;4;2;
69123;PMS5003;56232;53.384;-2.732;2022-08-19T08:40:56;4;3;
69123;PMS5003;56232;53.384;-2.732;2022-08-19T08:43:24;6;6;
69123;PMS5003;56232;53.384;-2.732;2022-08-19T08:45:47;5;4;
69123;PMS5003;56232;53.384;-2.732;2022-08-19T08:48:15;4;3;
69123;PMS5003;56232;53.384;-2.732;2022-08-19T08:50:38;3;2;
69123;PMS5003;56232;53.384;-2.732;2022-08-19T08:53:03;3;2;
69123;PMS5003;56232;53.384;-2.732;2022-08-19T08:55:29;4;4;
69123;PMS5003;56232;53.384;-2.732;2022-08-19T08:57:55;4;3;
69123;PMS5003;56232;53.384;-2.732;2022-08-19T09:00:21;1;1;
69123;PMS5003;56232;53.384;-2.732;2022-08-19T09:02:45;3;3;
69123;PMS5003;56232;53.384;-2.732;2022-08-19T09:05:11;1;1;
69123;PMS5003;56232;53.384;-2.732;2022-08-19T09:07:39;3;2;
69123;PMS5003;56232;53.384;-2.732;2022-08-19T09:10:04;2;2;
69123;PMS5003;56232;53.384;-2.732;2022-08-19T09:12:30;2;2;
69123;PMS5003;56232;53.384;-2.732;2022-08-19T09:14:53;1;1;
69123;PMS5003;56232;53.384;-2.732;2022-08-19T09:17:18;1;1;
69123;PMS5003;56232;53.384;-2.732;2022-08-19T09:19:47;1;1;
69123;PMS5003;56232;53.384;-2.732;2022-08-19T09:22:08;3;2;
69123;PMS5003;56232;53.384;-2.732;2022-08-19T09:24:34;2;1;
69123;PMS5003;56232;53.384;-2.732;2022-08-19T09:26:59;4;3;
69123;PMS5003;56232;53.384;-2.732;2022-08-19T09:29:25;1;1;
69123;PMS5003;56232;53.384;-2.732;2022-08-19T09:31:50;2;2;
69123;PMS5003;56232;53.384;-2.732;2022-08-19T09:34:16;1;1;
69123;PMS5003;56232;53.384;-2.732;2022-08-19T09:36:41;4;3;
69123;PMS5003;56232;53.384;-2.732;2022-08-19T09:39:07;3;2;
69123;PMS5003;56232;53.384;-2.732;2022-08-19T09:41:32;2;2;
69123;PMS5003;56232;53.384;-2.732;2022-08-19T09:43:58;1;1;
69123;PMS5003;56232;53.384;-2.732;2022-08-19T09:46:24;2;1;
69123;PMS5003;56232;53.384;-2.732;2022-08-19T09:48:49;0;0;
69123;PMS5003;56232;53.384;-2.732;2022-08-19T09:51:15;0;0;
69123;PMS5003;56232;53.384;-2.732;2022-08-19T09:53:40;1;1;
69123;PMS5003;56232;53.384;-2.732;2022-08-19T09:56:05;0;0;
69123;PMS5003;56232;53.384;-2.732;2022-08-19T09:58:31;1;1;
69123;PMS5003;56232;53.384;-2.732;2022-08-19T10:00:57;2;1;
69123;PMS5003;56232;53.384;-2.732;2022-08-19T10:03:22;0;0;
69123;PMS5003;56232;53.384;-2.732;2022-08-19T10:05:47;3;1;
69123;PMS5003;56232;53.384;-2.732;2022-08-19T10:08:13;2;0;
69123;PMS5003;56232;53.384;-2.732;2022-08-19T10:10:44;1;0;
69123;PMS5003;56232;53.384;-2.732;2022-08-19T10:13:04;1;1;
69123;PMS5003;56232;53.384;-2.732;2022-08-19T10:15:29;1;1;
69123;PMS5003;56232;53.384;-2.732;2022-08-19T10:17:55;2;1;
69123;PMS5003;56232;53.384;-2.732;2022-08-19T10:20:20;2;1;
69123;PMS5003;56232;53.384;-2.732;2022-08-19T10:22:46;2;1;
69123;PMS5003;56232;53.384;-2.732;2022-08-19T10:25:12;2;2;
69123;PMS5003;56232;53.384;-2.732;2022-08-19T10:27:37;1;1;
69123;PMS5003;56232;53.384;-2.732;2022-08-19T10:30:03;1;0;
69123;PMS5003;56232;53.384;-2.732;2022-08-19T10:32:28;1;0;
69123;PMS5003;56232;53.384;-2.732;2022-08-19T10:34:53;1;1;
69123;PMS5003;56232;53.384;-2.732;2022-08-19T10:37:19;2;1;
69123;PMS5003;56232;53.384;-2.732;2022-08-19T10:39:45;1;1;
69123;PMS5003;56232;53.384;-2.732;2022-08-19T10:42:10;0;0;
69123;PMS5003;56232;53.384;-2.732;2022-08-19T10:44:35;1;1;
69123;PMS5003;56232;53.384;-2.732;2022-08-19T10:47:01;1;1;
69123;PMS5003;56232;53.384;-2.732;2022-08-19T10:49:27;1;1;
69123;PMS5003;56232;53.384;-2.732;2022-08-19T10:51:52;1;1;
69123;PMS5003;56232;53.384;-2.732;2022-08-19T10:54:18;1;1;
69123;PMS5003;56232;53.384;-2.732;2022-08-19T10:56:43;1;1;
69123;PMS5003;56232;53.384;-2.732;2022-08-19T10:59:09;0;0;
69123;PMS5003;56232;53.384;-2.732;2022-08-19T11:01:35;1;1;
69123;PMS5003;56232;53.384;-2.732;2022-08-19T11:04:00;0;0;
69123;PMS5003;56232;53.384;-2.732;2022-08-19T11:06:25;1;1;
69123;PMS5003;56232;53.384;-2.732;2022-08-19T11:08:51;0;0;
69123;PMS5003;56232;53.384;-2.732;2022-08-19T11:11:16;1;1;
69123;PMS5003;56232;53.384;-2.732;2022-08-19T11:13:42;1;1;
69123;PMS5003;56232;53.384;-2.732;2022-08-19T11:16:09;1;1;
69123;PMS5003;56232;53.384;-2.732;2022-08-19T11:18:34;4;2;
69123;PMS5003;56232;53.384;-2.732;2022-08-19T11:23:24;1;1;
69123;PMS5003;56232;53.384;-2.732;2022-08-19T11:25:50;2;1;
69123;PMS5003;56232;53.384;-2.732;2022-08-19T11:28:15;0;0;
69123;PMS5003;56232;53.384;-2.732;2022-08-19T11:30:41;1;1;
69123;PMS5003;56232;53.384;-2.732;2022-08-19T11:33:06;1;0;
69123;PMS5003;56232;53.384;-2.732;2022-08-19T11:35:32;0;0;
69123;PMS5003;56232;53.384;-2.732;2022-08-19T11:37:57;0;0;
69123;PMS5003;56232;53.384;-2.732;2022-08-19T11:40:23;2;1;
69123;PMS5003;56232;53.384;-2.732;2022-08-19T11:42:48;1;0;
69123;PMS5003;56232;53.384;-2.732;2022-08-19T11:45:14;1;0;
69123;PMS5003;56232;53.384;-2.732;2022-08-19T11:47:39;1;1;
69123;PMS5003;56232;53.384;-2.732;2022-08-19T11:50:05;4;3;
69123;PMS5003;56232;53.384;-2.732;2022-08-19T11:52:30;1;1;
69123;PMS5003;56232;53.384;-2.732;2022-08-19T11:54:56;3;3;
69123;PMS5003;56232;53.384;-2.732;2022-08-19T11:57:22;0;0;
69123;PMS5003;56232;53.384;-2.732;2022-08-19T11:59:48;3;3;
69123;PMS5003;56232;53.384;-2.732;2022-08-19T12:02:13;1;1;
69123;PMS5003;56232;53.384;-2.732;2022-08-19T12:04:38;2;1;
69123;PMS5003;56232;53.384;-2.732;2022-08-19T12:07:04;1;1;
69123;PMS5003;56232;53.384;-2.732;2022-08-19T12:09:29;0;0;
69123;PMS5003;56232;53.384;-2.732;2022-08-19T12:11:55;0;0;
69123;PMS5003;56232;53.384;-2.732;2022-08-19T12:14:20;1;1;
69123;PMS5003;56232;53.384;-2.732;2022-08-19T12:16:46;1;0;
69123;PMS5003;56232;53.384;-2.732;2022-08-19T12:19:12;0;0;
69123;PMS5003;56232;53.384;-2.732;2022-08-19T12:21:37;0;0;
69123;PMS5003;56232;53.384;-2.732;2022-08-19T12:24:03;0;0;
69123;PMS5003;56232;53.384;-2.732;2022-08-19T12:26:29;0;0;
69123;PMS5003;56232;53.384;-2.732;2022-08-19T12:28:54;0;0;
69123;PMS5003;56232;53.384;-2.732;2022-08-19T12:31:19;0;0;
69123;PMS5003;56232;53.384;-2.732;2022-08-19T12:33:45;0;0;
69123;PMS5003;56232;53.384;-2.732;2022-08-19T12:36:12;1;0;
69123;PMS5003;56232;53.384;-2.732;2022-08-19T12:38:36;1;1;
69123;PMS5003;56232;53.384;-2.732;2022-08-19T12:41:01;0;0;
69123;PMS5003;56232;53.384;-2.732;2022-08-19T12:43:27;0;0;
69123;PMS5003;56232;53.384;-2.732;2022-08-19T12:45:53;1;1;
69123;PMS5003;56232;53.384;-2.732;2022-08-19T12:48:18;0;0;
69123;PMS5003;56232;53.384;-2.732;2022-08-19T12:50:44;0;0;
69123;PMS5003;56232;53.384;-2.732;2022-08-19T12:53:09;0;0;
69123;PMS5003;56232;53.384;-2.732;2022-08-19T12:55:35;1;1;
69123;PMS5003;56232;53.384;-2.732;2022-08-19T12:58:00;1;1;
69123;PMS5003;56232;53.384;-2.732;2022-08-19T13:00:26;1;1;
69123;PMS5003;56232;53.384;-2.732;2022-08-19T13:03:05;1;0;
69123;PMS5003;56232;53.384;-2.732;2022-08-19T13:05:19;0;0;
69123;PMS5003;56232;53.384;-2.732;2022-08-19T13:07:43;1;1;
69123;PMS5003;56232;53.384;-2.732;2022-08-19T13:10:09;1;0;
69123;PMS5003;56232;53.384;-2.732;2022-08-19T13:12:34;1;0;
69123;PMS5003;56232;53.384;-2.732;2022-08-19T13:14:59;0;0;
69123;PMS5003;56232;53.384;-2.732;2022-08-19T13:17:25;1;0;
69123;PMS5003;56232;53.384;-2.732;2022-08-19T13:19:50;1;1;
69123;PMS5003;56232;53.384;-2.732;2022-08-19T13:22:16;0;0;
69123;PMS5003;56232;53.384;-2.732;2022-08-19T13:24:41;1;1;
69123;PMS5003;56232;53.384;-2.732;2022-08-19T13:27:07;0;0;
69123;PMS5003;56232;53.384;-2.732;2022-08-19T13:29:32;2;1;
69123;PMS5003;56232;53.384;-2.732;2022-08-19T13:31:58;2;1;
69123;PMS5003;56232;53.384;-2.732;2022-08-19T13:34:26;1;1;
69123;PMS5003;56232;53.384;-2.732;2022-08-19T13:36:49;2;2;
69123;PMS5003;56232;53.384;-2.732;2022-08-19T13:39:15;2;1;
69123;PMS5003;56232;53.384;-2.732;2022-08-19T13:41:43;2;1;
69123;PMS5003;56232;53.384;-2.732;2022-08-19T13:44:06;0;0;
69123;PMS5003;56232;53.384;-2.732;2022-08-19T13:46:31;0;0;
69123;PMS5003;56232;53.384;-2.732;2022-08-19T13:48:57;1;0;
69123;PMS5003;56232;53.384;-2.732;2022-08-19T13:51:23;2;2;
69123;PMS5003;56232;53.384;-2.732;2022-08-19T13:53:48;0;0;
69123;PMS5003;56232;53.384;-2.732;2022-08-19T13:56:15;1;1;
69123;PMS5003;56232;53.384;-2.732;2022-08-19T13:58:39;1;0;
69123;PMS5003;56232;53.384;-2.732;2022-08-19T14:01:05;1;1;
69123;PMS5003;56232;53.384;-2.732;2022-08-19T14:03:31;1;0;
69123;PMS5003;56232;53.384;-2.732;2022-08-19T14:05:56;1;0;
69123;PMS5003;56232;53.384;-2.732;2022-08-19T14:08:21;1;0;
69123;PMS5003;56232;53.384;-2.732;2022-08-19T14:10:47;0;0;
69123;PMS5003;56232;53.384;-2.732;2022-08-19T14:13:13;0;0;
69123;PMS5003;56232;53.384;-2.732;2022-08-19T14:15:38;0;0;
69123;PMS5003;56232;53.384;-2.732;2022-08-19T14:18:04;1;1;
69123;PMS5003;56232;53.384;-2.732;2022-08-19T14:20:29;1;1;
69123;PMS5003;56232;53.384;-2.732;2022-08-19T14:22:55;1;1;
69123;PMS5003;56232;53.384;-2.732;2022-08-19T14:25:21;1;1;
69123;PMS5003;56232;53.384;-2.732;2022-08-19T14:27:46;1;1;
69123;PMS5003;56232;53.384;-2.732;2022-08-19T14:30:13;0;0;
69123;PMS5003;56232;53.384;-2.732;2022-08-19T14:32:37;0;0;
69123;PMS5003;56232;53.384;-2.732;2022-08-19T14:35:03;1;1;
69123;PMS5003;56232;53.384;-2.732;2022-08-19T14:37:28;0;0;
69123;PMS5003;56232;53.384;-2.732;2022-08-19T14:39:54;0;0;
69123;PMS5003;56232;53.384;-2.732;2022-08-19T14:42:19;0;0;
69123;PMS5003;56232;53.384;-2.732;2022-08-19T14:44:45;1;0;
69123;PMS5003;56232;53.384;-2.732;2022-08-19T14:47:11;0;0;
69123;PMS5003;56232;53.384;-2.732;2022-08-19T14:49:36;0;0;
69123;PMS5003;56232;53.384;-2.732;2022-08-19T14:52:02;0;0;
69123;PMS5003;56232;53.384;-2.732;2022-08-19T14:54:27;0;0;
69123;PMS5003;56232;53.384;-2.732;2022-08-19T14:56:53;0;0;
69123;PMS5003;56232;53.384;-2.732;2022-08-19T14:59:18;0;0;
69123;PMS5003;56232;53.384;-2.732;2022-08-19T15:01:44;1;1;
69123;PMS5003;56232;53.384;-2.732;2022-08-19T15:04:15;0;0;
69123;PMS5003;56232;53.384;-2.732;2022-08-19T15:06:35;0;0;
69123;PMS5003;56232;53.384;-2.732;2022-08-19T15:09:01;3;0;
69123;PMS5003;56232;53.384;-2.732;2022-08-19T15:11:26;1;0;
69123;PMS5003;56232;53.384;-2.732;2022-08-19T15:13:52;0;0;
69123;PMS5003;56232;53.384;-2.732;2022-08-19T15:16:17;0;0;
69123;PMS5003;56232;53.384;-2.732;2022-08-19T15:18:43;0;0;
69123;PMS5003;56232;53.384;-2.732;2022-08-19T15:21:08;1;0;
69123;PMS5003;56232;53.384;-2.732;2022-08-19T15:23:34;0;0;
69123;PMS5003;56232;53.384;-2.732;2022-08-19T15:25:59;0;0;
69123;PMS5003;56232;53.384;-2.732;2022-08-19T15:28:25;0;0;
69123;PMS5003;56232;53.384;-2.732;2022-08-19T15:30:51;0;0;
69123;PMS5003;56232;53.384;-2.732;2022-08-19T15:33:16;1;1;
69123;PMS5003;56232;53.384;-2.732;2022-08-19T15:35:42;1;0;
69123;PMS5003;56232;53.384;-2.732;2022-08-19T15:38:07;0;0;
69123;PMS5003;56232;53.384;-2.732;2022-08-19T15:40:33;0;0;
69123;PMS5003;56232;53.384;-2.732;2022-08-19T15:42:58;0;0;
69123;PMS5003;56232;53.384;-2.732;2022-08-19T15:45:24;1;0;
69123;PMS5003;56232;53.384;-2.732;2022-08-19T15:47:49;2;1;
69123;PMS5003;56232;53.384;-2.732;2022-08-19T15:50:16;1;0;
69123;PMS5003;56232;53.384;-2.732;2022-08-19T15:52:44;1;1;
69123;PMS5003;56232;53.384;-2.732;2022-08-19T15:55:06;0;0;
69123;PMS5003;56232;53.384;-2.732;2022-08-19T15:57:31;1;0;
69123;PMS5003;56232;53.384;-2.732;2022-08-19T15:59:57;1;1;
69123;PMS5003;56232;53.384;-2.732;2022-08-19T16:02:24;1;1;
69123;PMS5003;56232;53.384;-2.732;2022-08-19T16:04:48;1;1;
69123;PMS5003;56232;53.384;-2.732;2022-08-19T16:07:14;0;0;
69123;PMS5003;56232;53.384;-2.732;2022-08-19T16:09:39;1;1;
69123;PMS5003;56232;53.384;-2.732;2022-08-19T16:12:05;1;1;
69123;PMS5003;56232;53.384;-2.732;2022-08-19T16:14:31;0;0;
69123;PMS5003;56232;53.384;-2.732;2022-08-19T16:16:56;2;1;
69123;PMS5003;56232;53.384;-2.732;2022-08-19T16:19:22;0;0;
69123;PMS5003;56232;53.384;-2.732;2022-08-19T16:21:48;1;0;
69123;PMS5003;56232;53.384;-2.732;2022-08-19T16:24:14;2;2;
69123;PMS5003;56232;53.384;-2.732;2022-08-19T16:26:38;0;0;